Latest Weather Observations for Parafield

IDS60901

Issued at 8:51 am CDT Monday 30 March 2015 (issued every 10 minutes, with the page automatically refreshed every 10 minutes)

About weather observations | Map of Adelaide area stations | Latest observations for Adelaide area | Other Formats
Station Details ID: 023013 Name: PARAFIELD AIRPORT Lat: -34.80 Lon: 138.63 Height: 9.5 m
Data from the previous 72 hours. | See also: Recent months at Parafield
Date/Time
CDT
Tmp

°C
App
Tmp
°C
Dew
Point
°C
Rel
Hum
%
Delta-T

°C
Wind Press
QNH
hPa
Press
MSL
hPa
Rain
since
9 am
mm
Dir
 
Spd
km/h
Gust
km/h
Spd
kts
Gust
kts
30/08:30am 15.5 14.0 9.2 66 3.2 NE 7 9 4 5 1025.0 1024.9 0.0
30/08:00am 12.1 10.3 8.0 76 2.0 ENE 7 9 4 5 1024.9 1024.8 0.0
30/07:30am 11.4 11.0 8.1 80 1.6 CALM 0 0 0 0 1024.5 1024.4 0.0
30/07:00am 10.9 10.4 7.8 81 1.5 CALM 0 0 0 0 1024.2 1024.1 0.0
30/06:30am 10.5 9.9 7.4 81 1.5 CALM 0 0 0 0 1023.8 1023.7 0.0
30/06:00am 11.1 10.8 8.5 84 1.3 CALM 0 0 0 0 1023.4 1023.3 0.0
30/05:30am 11.7 11.4 8.6 81 1.5 CALM 0 0 0 0 1023.1 1023.0 0.0
30/05:00am 11.4 10.9 7.9 79 1.7 CALM 0 0 0 0 1023.0 1022.9 0.0
30/04:30am 11.8 11.5 8.6 81 1.6 CALM 0 0 0 0 1023.0 1022.9 0.0
30/04:00am 12.9 12.5 8.4 74 2.2 CALM 0 4 0 2 1023.0 1022.9 0.0
30/03:30am 13.5 11.9 8.8 73 2.4 NE 7 9 4 5 1023.1 1023.0 0.0
30/03:00am 12.8 12.5 8.5 75 2.1 CALM 0 0 0 0 1023.3 1023.2 0.0
30/02:30am 13.2 12.9 8.7 74 2.2 CALM 0 0 0 0 1023.6 1023.5 0.0
30/02:00am 13.8 13.7 9.5 75 2.2 CALM 0 0 0 0 1023.8 1023.7 0.0
30/01:30am 13.2 12.8 8.1 71 2.5 CALM 0 0 0 0 1023.8 1023.7 0.0
30/01:00am 14.7 14.7 9.7 72 2.6 CALM 0 0 0 0 1023.9 1023.8 0.0
30/12:30am 14.5 13.4 9.9 74 2.4 WSW 6 7 3 4 1023.9 1023.8 0.0
30/12:00am 15.3 15.6 10.9 75 2.3 CALM 0 6 0 3 1023.8 1023.7 0.0
 
Date/Time
CDT
Tmp

°C
App
Tmp
°C
Dew
Point
°C
Rel
Hum
%
Delta-T

°C
Wind Press
QNH
hPa
Press
MSL
hPa
Rain
since
9 am
mm
Dir
 
Spd
km/h
Gust
km/h
Spd
kts
Gust
kts
29/11:30pm 16.2 15.0 9.4 64 3.5 SE 6 7 3 4 1023.8 1023.7 0.0
29/11:00pm 16.9 16.1 9.8 63 3.7 SE 4 6 2 3 1024.0 1023.9 0.0
29/10:30pm 16.5 15.3 9.4 63 3.7 SW 6 9 3 5 1023.9 1023.8 0.0
29/10:00pm 17.3 15.9 9.5 60 4.1 WSW 7 9 4 5 1023.7 1023.6 0.0
29/09:30pm 18.2 17.1 9.8 58 4.4 SW 6 7 3 4 1023.3 1023.2 0.0
29/09:00pm 18.9 17.1 9.4 54 5.0 SSW 9 11 5 6 1023.1 1023.0 0.0
29/08:30pm 20.8 19.4 9.4 48 6.1 SSW 7 7 4 4 1022.9 1022.8 0.0
29/08:00pm 21.5 19.8 9.7 47 6.4 SW 9 13 5 7 1022.6 1022.5 0.0
29/07:30pm 21.9 19.8 9.8 46 6.5 SW 11 15 6 8 1022.3 1022.2 0.0
29/07:00pm 22.7 20.5 9.5 43 7.1 WSW 11 17 6 9 1022.1 1022.0 0.0
29/06:30pm 22.6 19.8 8.7 41 7.4 WSW 13 17 7 9 1022.0 1021.9 0.0
29/06:00pm 23.1 20.3 8.4 39 7.8 WSW 13 20 7 11 1021.7 1021.6 0.0
29/05:30pm 22.9 19.3 8.2 39 7.7 SW 17 20 9 11 1021.5 1021.5 0.0
29/05:00pm 23.3 19.8 8.6 39 7.8 WSW 17 24 9 13 1021.4 1021.4 0.0
29/04:30pm 23.9 20.3 8.3 37 8.3 WSW 17 22 9 12 1021.4 1021.4 0.0
29/04:00pm 24.5 21.6 8.0 35 8.8 W 13 19 7 10 1021.4 1021.4 0.0
29/03:30pm 25.3 22.3 7.9 33 9.2 NW 13 19 7 10 1021.4 1021.4 0.0
29/03:00pm 24.6 21.0 6.8 32 9.2 NW 15 20 8 11 1021.7 1021.6 0.0
29/02:30pm 25.7 22.9 6.8 30 9.9 WNW 11 19 6 10 1021.9 1021.8 0.0
29/02:00pm 24.4 21.4 6.2 31 9.3 W 11 19 6 10 1022.2 1022.1 0.0
29/01:30pm 24.1 20.4 6.4 32 9.1 W 15 20 8 11 1022.4 1022.3 0.0
29/01:00pm 24.1 20.3 5.9 31 9.3 W 15 20 8 11 1022.6 1022.5 0.0
29/12:30pm 24.0 21.7 5.8 31 9.2 NW 7 13 4 7 1022.9 1022.8 0.0
29/12:00pm 23.8 20.8 6.1 32 9.0 NW 11 17 6 9 1023.1 1023.0 0.0
29/11:30am 23.9 21.8 5.8 31 9.2 WNW 6 11 3 6 1023.1 1023.0 0.0
29/11:00am 22.3 19.9 5.3 33 8.5 NNW 7 11 4 6 1023.2 1023.1 0.0
29/10:30am 21.9 19.9 6.2 36 7.9 N 6 13 3 7 1023.4 1023.3 0.0
29/10:00am 21.1 19.1 7.0 40 7.2 NNE 7 11 4 6 1023.6 1023.5 0.0
29/09:30am 18.9 18.0 7.7 48 5.7 NE 2 6 1 3 1023.5 1023.4 0.0
29/09:00am 16.3 15.7 7.5 56 4.4 CALM 0 0 0 0 1023.2 1023.1 0.0
29/08:30am 14.6 14.1 7.9 64 3.3 CALM 0 0 0 0 1022.9 1022.8 0.0
29/08:00am 13.6 13.0 7.4 66 3.0 CALM 0 0 0 0 1022.8 1022.7 0.0
29/07:30am 12.6 12.0 7.3 70 2.6 CALM 0 0 0 0 1022.6 1022.5 0.0
29/07:00am 13.2 12.2 7.2 67 2.9 N 2 6 1 3 1022.0 1021.9 0.0
29/06:30am 12.7 12.1 7.2 69 2.6 CALM 0 0 0 0 1021.5 1021.5 0.0
29/06:00am 12.3 11.6 6.8 69 2.6 CALM 0 0 0 0 1021.5 1021.5 0.0
29/05:30am 12.6 11.9 7.1 69 2.6 CALM 0 0 0 0 1021.0 1021.0 0.0
29/05:00am 12.2 11.4 6.5 68 2.7 CALM 0 0 0 0 1020.9 1020.9 0.0
29/04:30am 13.6 13.0 7.2 65 3.1 CALM 0 0 0 0 1020.5 1020.5 0.0
29/04:00am 13.7 13.0 7.0 64 3.3 CALM 0 0 0 0 1020.6 1020.6 0.0
29/03:30am 13.8 13.1 6.9 63 3.3 CALM 0 0 0 0 1020.7 1020.7 0.0
29/03:00am 13.3 12.6 6.9 65 3.1 CALM 0 0 0 0 1021.0 1021.0 0.0
29/02:30am 13.7 12.9 6.6 62 3.4 CALM 0 0 0 0 1021.3 1021.3 0.0
29/02:00am 13.9 13.1 6.7 62 3.5 CALM 0 0 0 0 1021.7 1021.6 0.0
29/01:30am 13.0 12.2 6.4 64 3.1 CALM 0 2 0 1 1022.0 1021.9 0.0
29/01:00am 13.1 12.3 6.5 64 3.2 CALM 0 0 0 0 1021.8 1021.7 0.0
29/12:30am 13.7 12.2 6.8 63 3.3 NE 4 6 2 3 1021.7 1021.6 0.0
29/12:00am 14.2 12.7 6.8 61 3.6 NE 4 7 2 4 1021.7 1021.6 0.0
 
Date/Time
CDT
Tmp

°C
App
Tmp
°C
Dew
Point
°C
Rel
Hum
%
Delta-T

°C
Wind Press
QNH
hPa
Press
MSL
hPa
Rain
since
9 am
mm
Dir
 
Spd
km/h
Gust
km/h
Spd
kts
Gust
kts
28/11:30pm 13.7 11.4 5.8 59 3.7 NE 7 7 4 4 1021.8 1021.7 0.0
28/11:00pm 14.2 13.3 6.1 58 3.9 CALM 0 0 0 0 1022.1 1022.0 0.0
28/10:30pm 13.4 11.6 5.6 59 3.6 NE 4 7 2 4 1022.3 1022.2 0.0
28/10:00pm 14.0 13.0 5.6 57 4.0 CALM 0 0 0 0 1022.3 1022.2 0.0
28/09:30pm 15.6 13.5 5.8 52 4.7 NE 6 7 3 4 1022.2 1022.1 0.0
28/09:00pm 17.1 14.9 6.3 49 5.3 NE 7 9 4 5 1021.9 1021.8 0.0
28/08:30pm 18.3 17.3 5.8 44 6.1 CALM 0 0 0 0 1021.8 1021.7 0.0
28/08:00pm 18.1 17.3 6.3 46 5.8 CALM 0 0 0 0 1021.7 1021.6 0.0
28/07:30pm 18.9 17.9 5.7 42 6.5 CALM 0 4 0 2 1021.4 1021.4 0.0
28/07:00pm 19.8 18.0 5.5 39 7.0 SW 4 6 2 3 1021.1 1021.1 0.0
28/06:30pm 20.6 18.3 5.8 38 7.3 WSW 7 9 4 5 1021.0 1021.0 0.0
28/06:00pm 21.5 18.8 5.8 36 7.8 WNW 9 15 5 8 1020.6 1020.6 0.0
28/05:30pm 21.9 18.9 5.8 35 8.1 WNW 11 15 6 8 1020.7 1020.7 0.0
28/05:00pm 22.3 18.9 6.1 35 8.2 W 13 19 7 10 1020.9 1020.9 0.0
28/04:30pm 22.9 19.1 5.8 33 8.6 WSW 15 22 8 12 1021.3 1021.3 0.0
28/04:00pm 22.1 17.9 5.9 35 8.2 W 17 22 9 12 1021.4 1021.4 0.0
28/03:30pm 22.2 17.9 6.8 37 7.9 W 19 26 10 14 1021.8 1021.7 0.0
28/03:00pm 23.0 19.6 9.0 41 7.5 WSW 17 24 9 13 1022.2 1022.1 0.0
28/02:30pm 22.2 18.2 8.3 41 7.3 W 19 24 10 13 1022.5 1022.4 0.0
28/02:00pm 22.2 18.2 8.3 41 7.3 WNW 19 26 10 14 1022.9 1022.8 0.0
28/01:30pm 23.0 19.2 7.5 37 8.0 N 17 32 9 17 1023.1 1023.0 0.0
28/01:00pm 22.5 18.8 7.9 39 7.6 NNW 17 22 9 12 1023.6 1023.5 0.0
28/12:30pm 21.8 18.3 8.7 43 6.9 NNE 17 24 9 13 1024.2 1024.1 0.0
28/12:00pm 20.8 16.8 8.1 44 6.6 N 19 28 10 15 1024.6 1024.5 0.0
28/11:30am 20.1 16.0 7.8 45 6.3 NNE 19 28 10 15 1025.0 1024.9 0.0
28/11:00am 19.9 16.0 8.6 48 5.9 NE 19 28 10 15 1025.3 1025.2 0.0
28/10:30am 19.0 15.1 8.6 51 5.4 NNE 19 30 10 16 1025.7 1025.6 0.0
28/10:00am 17.9 14.5 9.0 56 4.6 NNE 17 24 9 13 1025.9 1025.8 0.0
28/09:30am 16.4 13.7 8.9 61 3.8 NE 13 20 7 11 1026.0 1025.9 0.0
28/09:00am 13.7 13.6 9.4 75 2.2 CALM 0 0 0 0 1026.1 1026.0 0.0
28/08:30am 10.7 10.5 9.1 90 0.8 CALM 0 0 0 0 1025.8 1025.7 0.0
28/08:00am 9.1 8.5 7.5 90 0.8 CALM 0 6 0 3 1025.6 1025.5 0.0
28/07:30am 8.3 7.6 6.9 91 0.6 CALM 0 0 0 0 1025.5 1025.4 0.0
28/07:00am 8.3 7.5 6.6 89 0.8 CALM 0 0 0 0 1025.7 1025.6 0.0
28/06:30am 8.3 7.5 6.6 89 0.8 CALM 0 0 0 0 1025.7 1025.6 0.0
28/06:00am 9.3 8.7 7.4 88 0.9 CALM 0 0 0 0 1025.6 1025.5 0.0
28/05:30am 9.6 9.0 7.5 87 1.0 CALM 0 0 0 0 1025.8 1025.7 0.0
28/05:00am 9.5 8.9 7.3 86 1.0 CALM 0 0 0 0 1025.7 1025.6 0.0
28/04:30am 10.0 8.0 7.3 83 1.3 WNW 7 9 4 5 1025.7 1025.6 0.0
28/04:00am 12.0 10.2 7.9 76 2.0 E 7 19 4 10 1025.6 1025.5 0.0
28/03:30am 12.7 11.2 8.6 76 2.0 NNE 6 11 3 6 1025.5 1025.4 0.0
28/03:00am 12.8 9.3 8.7 76 2.0 ESE 17 26 9 14 1025.3 1025.2 0.0
28/02:30am 12.7 9.1 8.4 75 2.1 ESE 17 20 9 11 1025.7 1025.6 0.0
28/02:00am 12.9 9.0 8.6 75 2.1 ESE 19 22 10 12 1026.3 1026.2 0.0
28/01:30am 13.2 9.7 8.7 74 2.2 ESE 17 20 9 11 1026.7 1026.6 0.0
28/01:00am 12.9 10.1 8.4 74 2.2 ESE 13 17 7 9 1026.4 1026.3 0.0
28/12:30am 12.5 10.0 8.0 74 2.2 ESE 11 13 6 7 1026.5 1026.4 0.0
28/12:00am 13.4 10.2 8.5 72 2.4 ESE 15 17 8 9 1026.8 1026.7 0.0
 
Date/Time
CDT
Tmp

°C
App
Tmp
°C
Dew
Point
°C
Rel
Hum
%
Delta-T

°C
Wind Press
QNH
hPa
Press
MSL
hPa
Rain
since
9 am
mm
Dir
 
Spd
km/h
Gust
km/h
Spd
kts
Gust
kts
27/11:30pm 13.4 10.6 8.5 72 2.4 ESE 13 19 7 10 1027.0 1026.9 0.0
27/11:00pm 13.0 10.5 8.3 73 2.3 SE 11 15 6 8 1027.1 1027.0 0.0
27/10:30pm 13.9 12.3 8.7 71 2.6 SSE 7 9 4 5 1027.3 1027.2 0.0
27/10:00pm 14.0 12.3 8.4 69 2.8 ESE 7 9 4 5 1027.3 1027.2 0.0
27/09:30pm 14.7 11.9 8.6 67 3.1 SE 13 13 7 7 1027.3 1027.2 0.0
27/09:00pm 16.0 12.4 8.2 60 3.9 SE 17 20 9 11 1027.0 1026.9 0.0
27/08:30pm 16.8 14.0 8.5 58 4.2 SE 13 19 7 10 1026.8 1026.7 0.0
27/08:00pm 16.9 14.5 10.1 64 3.6 S 13 20 7 11 1026.6 1026.5 0.0
27/07:30pm 16.6 13.6 10.7 68 3.1 SSW 17 20 9 11 1026.5 1026.4 0.0
27/07:00pm 16.7 13.4 10.8 68 3.2 SSW 19 26 10 14 1026.4 1026.3 0.0
27/06:30pm 16.9 13.2 10.3 65 3.5 SW 20 28 11 15 1026.3 1026.2 0.0
27/06:00pm 17.4 13.7 10.3 63 3.8 SW 20 28 11 15 1026.4 1026.3 0.0
27/05:30pm 17.6 14.0 10.5 63 3.8 SW 20 26 11 14 1026.2 1026.1 0.0
27/05:00pm 18.0 14.3 10.1 60 4.2 SW 20 28 11 15 1026.2 1026.1 0.0
27/04:30pm 18.4 14.4 10.3 59 4.3 SW 22 32 12 17 1026.4 1026.3 0.0
27/04:00pm 18.6 14.8 9.7 56 4.7 SW 20 26 11 14 1026.4 1026.3 0.0
27/03:30pm 18.5 14.8 9.3 55 4.8 SW 19 30 10 16 1026.5 1026.4 0.0
27/03:00pm 19.0 15.0 9.2 53 5.1 SW 20 37 11 20 1026.5 1026.4 0.0
27/02:30pm 19.5 15.4 8.8 50 5.6 SW 20 32 11 17 1026.9 1026.8 0.0
27/02:00pm 18.0 14.0 8.3 53 5.0 SW 19 26 10 14 1027.5 1027.4 0.0
27/01:30pm 18.6 16.4 8.0 50 5.4 WNW 9 17 5 9 1027.7 1027.6 0.0
27/01:00pm 18.7 15.9 6.9 46 5.9 SW 11 19 6 10 1028.3 1028.2 0.0
27/12:30pm 18.2 14.7 7.0 48 5.6 SW 15 20 8 11 1028.9 1028.8 0.0
27/12:00pm 18.0 14.8 6.8 48 5.5 SSW 13 20 7 11 1029.1 1029.0 0.0
27/11:30am 17.1 14.7 6.9 51 5.0 W 9 17 5 9 1029.5 1029.4 0.0
27/11:00am 16.9 15.3 8.6 58 4.3 W 7 11 4 6 1029.6 1029.5 0.0
27/10:30am 15.8 14.3 9.2 65 3.4 NNW 7 9 4 5 1029.9 1029.8 0.0
27/10:00am 14.6 13.1 9.2 70 2.8 NNW 7 11 4 6 1030.0 1029.9 0.0
27/09:30am 14.3 12.9 9.7 74 2.4 NNW 7 9 4 5 1029.9 1029.8 0.0
27/09:00am 13.8 12.0 9.6 76 2.1 N 9 9 5 5 1029.7 1029.6 0.0

Latest Capital City Observations: Canberra | Sydney | Melbourne | Brisbane | Adelaide | Perth | Hobart | Darwin

Other Formats:

Comma delimited format used in spreadsheet applications
http://www.bom.gov.au/fwo/IDS60901/IDS60901.95677.axf

JavaScript Object Notation format (JSON) in row-major order
http://www.bom.gov.au/fwo/IDS60901/IDS60901.95677.json